TimeCAT,TemperatureF,Dew PointF,Humidity,Sea Level PressureIn,VisibilityMPH,Wind Direction,Wind SpeedMPH,Gust SpeedMPH,PrecipitationIn,Events,Conditions,WindDirDegrees,DateUTC
12:00 AM,75.2,57.2,53,30.06,-9999.0,East,16.1,-,N/A,,Clear,100,2012-10-08 22:00:00
1:00 AM,73.4,57.2,57,30.06,-9999.0,ESE,15.0,-,N/A,,Clear,110,2012-10-08 23:00:00
2:00 AM,74,57,45,,6,East,8.1,,,,,80,2012-10-09 00:00:00
3:00 AM,68.0,59.0,73,30.04,-9999.0,East,13.8,-,N/A,,Clear,100,2012-10-09 01:00:00
4:00 AM,68.0,59.0,73,30.04,-9999.0,East,12.7,-,N/A,,Clear,100,2012-10-09 02:00:00
5:00 AM,66.2,59.0,78,30.06,-9999.0,East,13.8,-,N/A,,Clear,100,2012-10-09 03:00:00
6:00 AM,66.2,59.0,78,30.06,-9999.0,ESE,10.4,-,N/A,,Clear,110,2012-10-09 04:00:00
7:00 AM,66.2,60.8,83,30.09,-9999.0,East,12.7,-,N/A,,Clear,90,2012-10-09 05:00:00
8:00 AM,70,60,64,,6,East,18.4,,,,Scattered Clouds,90,2012-10-09 06:00:00
8:00 AM,69.8,60.8,73,30.09,6.2,East,18.4,-,N/A,,Partly Cloudy,90,2012-10-09 06:00:00
9:00 AM,75.2,60.8,61,30.09,-9999.0,East,15.0,-,N/A,,Clear,90,2012-10-09 07:00:00
10:00 AM,78.8,60.8,54,30.09,-9999.0,East,15.0,-,N/A,,Clear,90,2012-10-09 08:00:00
11:00 AM,84.2,59.0,42,30.06,-9999.0,East,15.0,-,N/A,,Clear,90,2012-10-09 09:00:00
12:00 PM,87.8,59.0,38,30.01,-9999.0,ESE,9.2,-,N/A,,Clear,120,2012-10-09 10:00:00
1:00 PM,91.4,59.0,34,29.98,-9999.0,SSE,11.5,-,N/A,,Clear,160,2012-10-09 11:00:00
2:00 PM,93,59,23,,6,SE,15.0,,,,,140,2012-10-09 12:00:00
2:00 PM,93.2,59.0,32,29.95,6.2,SE,15.0,-,N/A,,Partly Cloudy,140,2012-10-09 12:00:00
3:00 PM,91.4,59.0,34,29.92,6.2,ESE,25.3,-,N/A,,Partly Cloudy,110,2012-10-09 13:00:00
4:00 PM,89.6,59.0,36,29.92,6.2,ESE,20.7,-,N/A,,Partly Cloudy,120,2012-10-09 14:00:00
5:00 PM,86.0,60.8,43,29.95,6.2,ESE,16.1,-,N/A,,Partly Cloudy,120,2012-10-09 15:00:00
6:00 PM,82.4,59.0,45,29.98,6.2,ESE,16.1,-,N/A,,Partly Cloudy,120,2012-10-09 16:00:00
7:00 PM,80.6,59.0,48,29.98,6.2,ESE,16.1,-,N/A,,Partly Cloudy,120,2012-10-09 17:00:00
8:00 PM,80,57,35,,6,ESE,15.0,,,,,120,2012-10-09 18:00:00
8:00 PM,80.6,57.2,45,30.01,-9999.0,ESE,15.0,-,N/A,,Clear,120,2012-10-09 18:00:00
9:00 PM,78.8,59.0,51,30.01,-9999.0,ESE,9.2,-,N/A,,Clear,120,2012-10-09 19:00:00
10:00 PM,78.8,57.2,47,30.01,-9999.0,East,11.5,-,N/A,,Clear,90,2012-10-09 20:00:00
11:00 PM,77.0,57.2,50,30.01,-9999.0,East,12.7,-,N/A,,Clear,90,2012-10-09 21:00:00